Cheikh El Mokrani — C6WD5 — position and weather

sailwx.info

Track history (hours):
 
Tides and Currents Weather Stations Pressure Air Temp Water Temp Dewpoint Dewpoint Depression Visibility Wind Speed Wind Dir Waves Ship Positions

Cheikh El Mokrani

Last reported at 2015-Sep-03 13:27 UTC. Time now 2015-Sep-04 23:17 UTC.
Position N 37°02' E 006°58'.

Length 220 m; draft 8.3 m.

Type: Ship (hazmat cat D). MMSI: 309979000.

Date/timePositionNaut miles runAvg speedWind from/ knotsBaromVisibWave heightAir tempDewpointWater temp
2015-Sep-03 13:27N 37°02' E 006°58'0 0.3
2015-Sep-03 12:33N 37°02' E 006°58'0 0.1
2015-Sep-03 08:30N 37°02' E 006°58'2 0.0
2015-Sep-01 15:33N 37°00' E 006°60'1 0.5
2015-Sep-01 13:33N 36°59' E 006°60'1 0.0
2015-Aug-31 18:16N 36°60' E 006°59'0 0.6
2015-Aug-31 17:32N 37°00' E 006°59'1 0.6
2015-Aug-31 16:33N 37°01' E 006°59'1 0.2
2015-Aug-31 14:13N 37°01' E 006°58'1 0.3
2015-Aug-31 11:33N 37°01' E 006°57'1 0.3
2015-Aug-31 09:32N 37°01' E 006°57'3 1.3
2015-Aug-31 07:13N 37°01' E 006°53'22 7.2
2015-Aug-31 04:10N 37°11' E 006°29'7 8.0
2015-Aug-31 03:19N 37°11' E 006°20'7 8.2
2015-Aug-31 02:31N 37°10' E 006°12'72 8.1
2015-Aug-30 17:33N 37°06' E 004°42'26611.6
2015-Aug-29 18:32N 39°30' W 000°04'1110.7
2015-Aug-29 17:33N 39°38' W 000°13'0 0.0
2015-Aug-28 16:06N 39°38' W 000°13'0 0.4
2015-Aug-28 15:33N 39°38' W 000°13'5 4.6
2015-Aug-28 14:33N 39°35' W 000°09'1311.0
2015-Aug-28 13:24N 39°25' E 000°02'1012.0
2015-Aug-28 12:33N 39°18' E 000°11'2814.1
2015-Aug-28 10:32N 38°57' E 000°36'1514.5
2015-Aug-28 09:28N 38°45' E 000°49'1415.3
2015-Aug-28 08:33N 38°34' E 000°60'1615.6
2015-Aug-28 07:33N 38°27' E 001°17'1817.0
2015-Aug-28 06:30N 38°22' E 001°39'1616.8
2015-Aug-28 05:33N 38°17' E 001°59'1816.6
2015-Aug-28 04:29N 38°12' E 002°21'1616.9
2015-Aug-28 03:33N 38°08' E 002°40'1717.0
2015-Aug-28 02:33N 38°03' E 003°00'1717.1
2015-Aug-28 01:33N 37°58' E 003°21'1717.1
2015-Aug-28 00:33N 37°52' E 003°42'1717.1
2015-Aug-27 23:33N 37°47' E 004°02'1717.2
2015-Aug-27 22:33N 37°43' E 004°23'1817.1
2015-Aug-27 21:31N 37°38' E 004°45'1616.9
2015-Aug-27 20:33N 37°33' E 005°04'1717.3
2015-Aug-27 19:33N 37°29' E 005°25'7216.9
2015-Aug-27 15:18N 37°03' E 006°50'11 1.1
2015-Aug-27 05:12N 36°53' E 006°57'47 1.8
2015-Aug-26 02:33N 37°40' E 006°52'33513.4
2015-Aug-25 01:33N 43°04' E 005°04'1414.1
2015-Aug-25 00:33N 43°18' E 004°59'9 9.3
2015-Aug-24 23:33N 43°26' E 004°52'2 1.5
2015-Aug-24 22:32N 43°27' E 004°51'0 0.0
2015-Aug-24 21:32N 43°27' E 004°51'0 0.0
2015-Aug-24 20:32N 43°27' E 004°51'0 0.0
2015-Aug-24 19:32N 43°27' E 004°51'0 0.0
2015-Aug-24 18:32N 43°27' E 004°51'0 0.0
2015-Aug-24 17:32N 43°27' E 004°51'0 0.0
2015-Aug-24 16:32N 43°27' E 004°51'0 0.0
2015-Aug-24 15:32N 43°27' E 004°51'0 0.0
2015-Aug-24 14:31N 43°27' E 004°51'0 0.0
2015-Aug-24 13:31N 43°27' E 004°51'  
Track history (hours):
 
Tides and Currents Weather Stations Pressure Air Temp Water Temp Dewpoint Dewpoint Depression Visibility Wind Speed Wind Dir Waves Ship Positions

Cheikh El Mokrani

Last reported at 2015-Sep-03 13:27 UTC. Time now 2015-Sep-04 23:17 UTC.
Position N 37°02' E 006°58'.

Length 220 m; draft 8.3 m.

Type: Ship (hazmat cat D). MMSI: 309979000.

Date/timePositionNaut miles runAvg speedWind from/ knotsBaromVisibWave heightAir tempDewpointWater temp
2015-Sep-03 13:27N 37°02' E 006°58'0 0.3
2015-Sep-03 12:33N 37°02' E 006°58'0 0.1
2015-Sep-03 08:30N 37°02' E 006°58'2 0.0
2015-Sep-01 15:33N 37°00' E 006°60'1 0.5
2015-Sep-01 13:33N 36°59' E 006°60'1 0.0
2015-Aug-31 18:16N 36°60' E 006°59'0 0.6
2015-Aug-31 17:32N 37°00' E 006°59'1 0.6
2015-Aug-31 16:33N 37°01' E 006°59'1 0.2
2015-Aug-31 14:13N 37°01' E 006°58'1 0.3
2015-Aug-31 11:33N 37°01' E 006°57'1 0.3
2015-Aug-31 09:32N 37°01' E 006°57'3 1.3
2015-Aug-31 07:13N 37°01' E 006°53'22 7.2
2015-Aug-31 04:10N 37°11' E 006°29'7 8.0
2015-Aug-31 03:19N 37°11' E 006°20'7 8.2
2015-Aug-31 02:31N 37°10' E 006°12'72 8.1
2015-Aug-30 17:33N 37°06' E 004°42'26611.6
2015-Aug-29 18:32N 39°30' W 000°04'1110.7
2015-Aug-29 17:33N 39°38' W 000°13'0 0.0
2015-Aug-28 16:06N 39°38' W 000°13'0 0.4
2015-Aug-28 15:33N 39°38' W 000°13'5 4.6
2015-Aug-28 14:33N 39°35' W 000°09'1311.0
2015-Aug-28 13:24N 39°25' E 000°02'1012.0
2015-Aug-28 12:33N 39°18' E 000°11'2814.1
2015-Aug-28 10:32N 38°57' E 000°36'1514.5
2015-Aug-28 09:28N 38°45' E 000°49'1415.3
2015-Aug-28 08:33N 38°34' E 000°60'1615.6
2015-Aug-28 07:33N 38°27' E 001°17'1817.0
2015-Aug-28 06:30N 38°22' E 001°39'1616.8
2015-Aug-28 05:33N 38°17' E 001°59'1816.6
2015-Aug-28 04:29N 38°12' E 002°21'1616.9
2015-Aug-28 03:33N 38°08' E 002°40'1717.0
2015-Aug-28 02:33N 38°03' E 003°00'1717.1
2015-Aug-28 01:33N 37°58' E 003°21'1717.1
2015-Aug-28 00:33N 37°52' E 003°42'1717.1
2015-Aug-27 23:33N 37°47' E 004°02'1717.2
2015-Aug-27 22:33N 37°43' E 004°23'1817.1
2015-Aug-27 21:31N 37°38' E 004°45'1616.9
2015-Aug-27 20:33N 37°33' E 005°04'1717.3
2015-Aug-27 19:33N 37°29' E 005°25'7216.9
2015-Aug-27 15:18N 37°03' E 006°50'11 1.1
2015-Aug-27 05:12N 36°53' E 006°57'47 1.8
2015-Aug-26 02:33N 37°40' E 006°52'33513.4
2015-Aug-25 01:33N 43°04' E 005°04'1414.1
2015-Aug-25 00:33N 43°18' E 004°59'9 9.3
2015-Aug-24 23:33N 43°26' E 004°52'2 1.5
2015-Aug-24 22:32N 43°27' E 004°51'0 0.0
2015-Aug-24 21:32N 43°27' E 004°51'0 0.0
2015-Aug-24 20:32N 43°27' E 004°51'0 0.0
2015-Aug-24 19:32N 43°27' E 004°51'0 0.0
2015-Aug-24 18:32N 43°27' E 004°51'0 0.0
2015-Aug-24 17:32N 43°27' E 004°51'0 0.0
2015-Aug-24 16:32N 43°27' E 004°51'0 0.0
2015-Aug-24 15:32N 43°27' E 004°51'0 0.0
2015-Aug-24 14:31N 43°27' E 004°51'0 0.0
2015-Aug-24 13:31N 43°27' E 004°51'  

Dump ship's entire track history